sensor_id;sensor_type;location;lat;lon;timestamp;pressure;altitude;pressure_sealevel;temperature;humidity
64876;BME280;51369;49.862;9.908;2023-04-02T00:01:25;97417.78;;;10.61;79.63
64876;BME280;51369;49.862;9.908;2023-04-02T00:08:59;97426.72;;;10.62;79.97
64876;BME280;51369;49.862;9.908;2023-04-02T00:11:36;97433.00;;;10.62;79.41
64876;BME280;51369;49.862;9.908;2023-04-02T00:14:04;97426.72;;;10.62;80.45
64876;BME280;51369;49.862;9.908;2023-04-02T00:16:31;97426.72;;;10.62;80.04
64876;BME280;51369;49.862;9.908;2023-04-02T00:19:01;97426.72;;;10.62;79.84
64876;BME280;51369;49.862;9.908;2023-04-02T00:21:33;97430.41;;;10.61;80.59
64876;BME280;51369;49.862;9.908;2023-04-02T00:24:01;97437.53;;;10.62;79.95
64876;BME280;51369;49.862;9.908;2023-04-02T00:26:33;97437.72;;;10.59;79.99
64876;BME280;51369;49.862;9.908;2023-04-02T00:29:00;97437.72;;;10.59;80.44
64876;BME280;51369;49.862;9.908;2023-04-02T00:31:26;97445.91;;;10.57;80.08
64876;BME280;51369;49.862;9.908;2023-04-02T00:33:52;97446.50;;;10.62;79.45
64876;BME280;51369;49.862;9.908;2023-04-02T00:36:18;97452.00;;;10.61;79.22
64876;BME280;51369;49.862;9.908;2023-04-02T00:38:46;97451.28;;;10.57;79.71
64876;BME280;51369;49.862;9.908;2023-04-02T00:41:30;97457.75;;;10.55;79.42
64876;BME280;51369;49.862;9.908;2023-04-02T00:44:00;97455.81;;;10.57;79.78
64876;BME280;51369;49.862;9.908;2023-04-02T00:46:30;97454.09;;;10.56;80.06
64876;BME280;51369;49.862;9.908;2023-04-02T00:49:04;97460.44;;;10.55;79.85
64876;BME280;51369;49.862;9.908;2023-04-02T00:51:52;97453.28;;;10.54;80.20
64876;BME280;51369;49.862;9.908;2023-04-02T00:54:22;97463.13;;;10.55;79.75
64876;BME280;51369;49.862;9.908;2023-04-02T00:56:52;97457.75;;;10.55;79.48
64876;BME280;51369;49.862;9.908;2023-04-02T01:01:51;97461.41;;;10.54;79.78
64876;BME280;51369;49.862;9.908;2023-04-02T01:04:56;97464.09;;;10.54;79.68
64876;BME280;51369;49.862;9.908;2023-04-02T01:15:35;97478.38;;;10.56;79.36
64876;BME280;51369;49.862;9.908;2023-04-02T01:21:02;97476.72;;;10.53;80.06
64876;BME280;51369;49.862;9.908;2023-04-02T01:27:00;97486.63;;;10.53;79.69
64876;BME280;51369;49.862;9.908;2023-04-02T01:29:32;97488.38;;;10.54;80.14
64876;BME280;51369;49.862;9.908;2023-04-02T01:32:07;97482.97;;;10.54;80.40
64876;BME280;51369;49.862;9.908;2023-04-02T01:34:35;97492.91;;;10.53;79.51
64876;BME280;51369;49.862;9.908;2023-04-02T01:39:50;97496.56;;;10.52;80.38
64876;BME280;51369;49.862;9.908;2023-04-02T01:45:16;97505.63;;;10.51;80.69
64876;BME280;51369;49.862;9.908;2023-04-02T01:47:43;97502.91;;;10.51;81.39
64876;BME280;51369;49.862;9.908;2023-04-02T01:52:49;97511.19;;;10.48;81.23
64876;BME280;51369;49.862;9.908;2023-04-02T01:55:18;97515.72;;;10.48;81.36
64876;BME280;51369;49.862;9.908;2023-04-02T01:57:48;97519.38;;;10.47;81.44
64876;BME280;51369;49.862;9.908;2023-04-02T02:00:16;97513.97;;;10.47;82.48
64876;BME280;51369;49.862;9.908;2023-04-02T02:02:48;97520.25;;;10.47;82.08
64876;BME280;51369;49.862;9.908;2023-04-02T02:05:19;97528.34;;;10.47;83.01
64876;BME280;51369;49.862;9.908;2023-04-02T02:07:46;97532.78;;;10.48;81.99
64876;BME280;51369;49.862;9.908;2023-04-02T02:10:24;97530.16;;;10.47;82.18
64876;BME280;51369;49.862;9.908;2023-04-02T02:12:50;97524.69;;;10.48;82.62
64876;BME280;51369;49.862;9.908;2023-04-02T02:15:20;97537.31;;;10.48;82.98
64876;BME280;51369;49.862;9.908;2023-04-02T02:17:47;97537.31;;;10.48;82.48
64876;BME280;51369;49.862;9.908;2023-04-02T02:20:13;97546.34;;;10.47;82.93
64876;BME280;51369;49.862;9.908;2023-04-02T02:22:45;97539.22;;;10.46;82.48
64876;BME280;51369;49.862;9.908;2023-04-02T02:25:17;97545.47;;;10.46;83.32
64876;BME280;51369;49.862;9.908;2023-04-02T02:27:48;97546.34;;;10.47;82.38
64876;BME280;51369;49.862;9.908;2023-04-02T02:30:22;97551.75;;;10.47;83.29
64876;BME280;51369;49.862;9.908;2023-04-02T02:35:25;97551.75;;;10.47;83.03
64876;BME280;51369;49.862;9.908;2023-04-02T02:38:18;97550.88;;;10.46;82.39
64876;BME280;51369;49.862;9.908;2023-04-02T02:40:52;97561.69;;;10.46;82.16
64876;BME280;51369;49.862;9.908;2023-04-02T02:43:19;97567.06;;;10.46;82.25
64876;BME280;51369;49.862;9.908;2023-04-02T02:45:46;97577.00;;;10.46;82.07
64876;BME280;51369;49.862;9.908;2023-04-02T02:48:17;97571.59;;;10.46;83.03
64876;BME280;51369;49.862;9.908;2023-04-02T02:50:44;97577.94;;;10.44;82.03
64876;BME280;51369;49.862;9.908;2023-04-02T02:53:19;97584.22;;;10.45;82.14
64876;BME280;51369;49.862;9.908;2023-04-02T02:55:47;97575.25;;;10.44;83.46
64876;BME280;51369;49.862;9.908;2023-04-02T02:58:27;97578.91;;;10.43;83.25
64876;BME280;51369;49.862;9.908;2023-04-02T03:01:13;97574.38;;;10.44;82.16
64876;BME280;51369;49.862;9.908;2023-04-02T03:03:41;97581.53;;;10.45;82.81
64876;BME280;51369;49.862;9.908;2023-04-02T03:06:09;97583.34;;;10.44;82.43
64876;BME280;51369;49.862;9.908;2023-04-02T03:08:45;97574.47;;;10.42;82.22
64876;BME280;51369;49.862;9.908;2023-04-02T03:11:19;97587.00;;;10.43;82.70
64876;BME280;51369;49.862;9.908;2023-04-02T03:13:48;97582.66;;;10.41;83.03
64876;BME280;51369;49.862;9.908;2023-04-02T03:16:33;97588.16;;;10.39;82.36
64876;BME280;51369;49.862;9.908;2023-04-02T03:27:02;97603.56;;;10.37;82.73
64876;BME280;51369;49.862;9.908;2023-04-02T03:29:33;97609.91;;;10.36;81.76
64876;BME280;51369;49.862;9.908;2023-04-02T03:32:06;97611.72;;;10.36;81.81
64876;BME280;51369;49.862;9.908;2023-04-02T03:34:54;97614.44;;;10.36;82.21
64876;BME280;51369;49.862;9.908;2023-04-02T03:37:42;97620.69;;;10.36;82.68
64876;BME280;51369;49.862;9.908;2023-04-02T03:40:20;97615.22;;;10.38;82.98
64876;BME280;51369;49.862;9.908;2023-04-02T03:42:52;97617.91;;;10.38;82.46
64876;BME280;51369;49.862;9.908;2023-04-02T03:45:22;97618.78;;;10.38;82.68
64876;BME280;51369;49.862;9.908;2023-04-02T03:47:55;97623.31;;;10.38;81.68
64876;BME280;51369;49.862;9.908;2023-04-02T03:50:42;97623.47;;;10.35;82.49
64876;BME280;51369;49.862;9.908;2023-04-02T03:53:11;97623.31;;;10.38;82.72
64876;BME280;51369;49.862;9.908;2023-04-02T03:55:38;97626.09;;;10.36;82.19
64876;BME280;51369;49.862;9.908;2023-04-02T03:58:14;97630.72;;;10.34;81.97
64876;BME280;51369;49.862;9.908;2023-04-02T04:00:56;97637.06;;;10.33;81.69
64876;BME280;51369;49.862;9.908;2023-04-02T04:03:30;97640.63;;;10.34;82.58
64876;BME280;51369;49.862;9.908;2023-04-02T04:06:08;97644.19;;;10.34;82.06
64876;BME280;51369;49.862;9.908;2023-04-02T04:08:43;97650.53;;;10.33;82.06
64876;BME280;51369;49.862;9.908;2023-04-02T04:11:16;97654.13;;;10.34;81.65
64876;BME280;51369;49.862;9.908;2023-04-02T04:14:08;97656.91;;;10.32;81.32
64876;BME280;51369;49.862;9.908;2023-04-02T04:19:31;97670.31;;;10.34;82.57
64876;BME280;51369;49.862;9.908;2023-04-02T04:22:16;97674.81;;;10.33;82.82
64876;BME280;51369;49.862;9.908;2023-04-02T04:24:45;97676.50;;;10.36;82.19
64876;BME280;51369;49.862;9.908;2023-04-02T04:30:06;97689.13;;;10.35;82.37
64876;BME280;51369;49.862;9.908;2023-04-02T04:32:35;97687.22;;;10.37;82.62
64876;BME280;51369;49.862;9.908;2023-04-02T04:35:28;97690.94;;;10.35;83.20
64876;BME280;51369;49.862;9.908;2023-04-02T04:38:06;97693.56;;;10.36;82.21
64876;BME280;51369;49.862;9.908;2023-04-02T04:40:53;97702.44;;;10.38;83.01
64876;BME280;51369;49.862;9.908;2023-04-02T04:43:36;97708.78;;;10.37;82.06
64876;BME280;51369;49.862;9.908;2023-04-02T04:46:13;97714.09;;;10.39;82.44
64876;BME280;51369;49.862;9.908;2023-04-02T04:48:55;97720.25;;;10.41;83.12
64876;BME280;51369;49.862;9.908;2023-04-02T04:51:43;97723.94;;;10.40;83.26
64876;BME280;51369;49.862;9.908;2023-04-02T04:54:14;97726.53;;;10.41;82.05
64876;BME280;51369;49.862;9.908;2023-04-02T04:56:50;97726.53;;;10.41;83.03
64876;BME280;51369;49.862;9.908;2023-04-02T04:59:38;97725.66;;;10.41;82.04
64876;BME280;51369;49.862;9.908;2023-04-02T05:02:24;97736.38;;;10.42;83.07
64876;BME280;51369;49.862;9.908;2023-04-02T05:04:53;97733.59;;;10.44;81.84
64876;BME280;51369;49.862;9.908;2023-04-02T05:07:22;97735.41;;;10.43;82.06
64876;BME280;51369;49.862;9.908;2023-04-02T05:09:58;97737.25;;;10.43;82.58
64876;BME280;51369;49.862;9.908;2023-04-02T05:12:50;97732.81;;;10.42;82.10
64876;BME280;51369;49.862;9.908;2023-04-02T05:15:29;97747.97;;;10.44;81.74
64876;BME280;51369;49.862;9.908;2023-04-02T05:18:13;97742.56;;;10.44;82.24
64876;BME280;51369;49.862;9.908;2023-04-02T05:20:48;97747.09;;;10.44;82.21
64876;BME280;51369;49.862;9.908;2023-04-02T05:23:24;97763.19;;;10.46;81.96
64876;BME280;51369;49.862;9.908;2023-04-02T05:26:14;97765.03;;;10.45;81.32
64876;BME280;51369;49.862;9.908;2023-04-02T05:28:55;97763.13;;;10.47;81.95
64876;BME280;51369;49.862;9.908;2023-04-02T05:31:44;97765.81;;;10.47;81.74
64876;BME280;51369;49.862;9.908;2023-04-02T05:34:21;97770.19;;;10.50;81.79
64876;BME280;51369;49.862;9.908;2023-04-02T05:36:48;97773.69;;;10.52;81.85
64876;BME280;51369;49.862;9.908;2023-04-02T05:39:22;97780.03;;;10.51;81.88
64876;BME280;51369;49.862;9.908;2023-04-02T05:42:06;97781.78;;;10.52;82.43
64876;BME280;51369;49.862;9.908;2023-04-02T05:47:31;97789.63;;;10.56;82.17
64876;BME280;51369;49.862;9.908;2023-04-02T05:52:48;97796.84;;;10.56;81.98
64876;BME280;51369;49.862;9.908;2023-04-02T05:57:51;97803.91;;;10.58;81.76
64876;BME280;51369;49.862;9.908;2023-04-02T06:00:50;97807.56;;;10.57;82.18
64876;BME280;51369;49.862;9.908;2023-04-02T06:03:33;97809.31;;;10.58;82.56
64876;BME280;51369;49.862;9.908;2023-04-02T06:06:09;97819.16;;;10.59;82.79
64876;BME280;51369;49.862;9.908;2023-04-02T06:08:46;97829.09;;;10.59;82.01
64876;BME280;51369;49.862;9.908;2023-04-02T06:11:22;97846.25;;;10.58;83.04
64876;BME280;51369;49.862;9.908;2023-04-02T06:13:51;97843.63;;;10.56;81.68
64876;BME280;51369;49.862;9.908;2023-04-02T06:16:19;97852.09;;;10.49;81.37
64876;BME280;51369;49.862;9.908;2023-04-02T06:18:47;97860.84;;;10.36;80.36
64876;BME280;51369;49.862;9.908;2023-04-02T06:21:14;97874.06;;;10.24;79.68
64876;BME280;51369;49.862;9.908;2023-04-02T06:23:45;97871.16;;;10.09;79.66
64876;BME280;51369;49.862;9.908;2023-04-02T06:28:47;97880.19;;;9.90;80.06
64876;BME280;51369;49.862;9.908;2023-04-02T06:34:12;97889.88;;;9.75;78.92
64876;BME280;51369;49.862;9.908;2023-04-02T06:36:39;97898.25;;;9.69;79.29
64876;BME280;51369;49.862;9.908;2023-04-02T06:39:11;97891.41;;;9.62;80.03
64876;BME280;51369;49.862;9.908;2023-04-02T06:41:42;97905.16;;;9.56;79.74
64876;BME280;51369;49.862;9.908;2023-04-02T06:44:33;97912.53;;;9.52;80.92
64876;BME280;51369;49.862;9.908;2023-04-02T06:50:13;97921.16;;;9.40;80.48
64876;BME280;51369;49.862;9.908;2023-04-02T06:52:45;97928.50;;;9.36;79.65
64876;BME280;51369;49.862;9.908;2023-04-02T06:55:26;97931.47;;;9.30;80.31
64876;BME280;51369;49.862;9.908;2023-04-02T06:57:53;97941.44;;;9.28;81.12
64876;BME280;51369;49.862;9.908;2023-04-02T07:00:27;97946.09;;;9.25;80.31
64876;BME280;51369;49.862;9.908;2023-04-02T07:02:56;97953.38;;;9.23;80.77
64876;BME280;51369;49.862;9.908;2023-04-02T07:05:23;97960.63;;;9.21;80.38
64876;BME280;51369;49.862;9.908;2023-04-02T07:07:49;97967.91;;;9.19;80.32
64876;BME280;51369;49.862;9.908;2023-04-02T07:10:16;97971.69;;;9.14;80.12
64876;BME280;51369;49.862;9.908;2023-04-02T07:12:43;97974.50;;;9.11;80.40
64876;BME280;51369;49.862;9.908;2023-04-02T07:15:14;97980.09;;;9.07;80.69
64876;BME280;51369;49.862;9.908;2023-04-02T07:17:41;97977.47;;;9.05;80.84
64876;BME280;51369;49.862;9.908;2023-04-02T07:20:22;97989.31;;;9.01;80.11
64876;BME280;51369;49.862;9.908;2023-04-02T07:22:48;97995.63;;;9.00;80.22
64876;BME280;51369;49.862;9.908;2023-04-02T07:25:14;97999.38;;;8.96;80.67
64876;BME280;51369;49.862;9.908;2023-04-02T07:27:39;98011.16;;;8.94;79.95
64876;BME280;51369;49.862;9.908;2023-04-02T07:30:06;98010.41;;;8.90;80.06
64876;BME280;51369;49.862;9.908;2023-04-02T07:32:31;98015.94;;;8.87;80.40
64876;BME280;51369;49.862;9.908;2023-04-02T07:34:57;98023.06;;;8.88;80.47
64876;BME280;51369;49.862;9.908;2023-04-02T07:37:22;98020.44;;;8.87;80.37
64876;BME280;51369;49.862;9.908;2023-04-02T07:39:48;98022.25;;;8.86;80.38
64876;BME280;51369;49.862;9.908;2023-04-02T07:42:13;98039.28;;;8.87;80.47
64876;BME280;51369;49.862;9.908;2023-04-02T07:44:38;98041.03;;;8.88;80.78
64876;BME280;51369;49.862;9.908;2023-04-02T07:47:04;98047.28;;;8.88;80.99
64876;BME280;51369;49.862;9.908;2023-04-02T07:49:30;98050.00;;;8.88;80.23
64876;BME280;51369;49.862;9.908;2023-04-02T07:51:55;98055.38;;;8.88;80.05
64876;BME280;51369;49.862;9.908;2023-04-02T07:54:20;98065.19;;;8.89;80.91
64876;BME280;51369;49.862;9.908;2023-04-02T07:56:46;98067.88;;;8.89;80.78
64876;BME280;51369;49.862;9.908;2023-04-02T07:59:11;98075.84;;;8.92;80.31
64876;BME280;51369;49.862;9.908;2023-04-02T08:01:37;98079.28;;;8.96;80.81
64876;BME280;51369;49.862;9.908;2023-04-02T08:04:03;98081.97;;;8.96;80.62
64876;BME280;51369;49.862;9.908;2023-04-02T08:06:29;98085.56;;;8.96;81.21
64876;BME280;51369;49.862;9.908;2023-04-02T08:08:56;98099.00;;;8.96;80.45
64876;BME280;51369;49.862;9.908;2023-04-02T08:11:21;98102.75;;;8.92;80.29
64876;BME280;51369;49.862;9.908;2023-04-02T08:13:47;98101.94;;;8.90;79.88
64876;BME280;51369;49.862;9.908;2023-04-02T08:16:13;98111.16;;;8.85;79.11
64876;BME280;51369;49.862;9.908;2023-04-02T08:18:38;98117.28;;;8.88;80.30
64876;BME280;51369;49.862;9.908;2023-04-02T08:21:08;98114.53;;;8.90;79.84
64876;BME280;51369;49.862;9.908;2023-04-02T08:23:34;98125.38;;;8.88;78.84
64876;BME280;51369;49.862;9.908;2023-04-02T08:26:01;98133.56;;;8.85;78.83
64876;BME280;51369;49.862;9.908;2023-04-02T08:28:27;98134.50;;;8.84;78.75
64876;BME280;51369;49.862;9.908;2023-04-02T08:30:52;98136.44;;;8.80;78.94
64876;BME280;51369;49.862;9.908;2023-04-02T08:33:18;98138.13;;;8.83;79.28
64876;BME280;51369;49.862;9.908;2023-04-02T08:35:45;98148.78;;;8.86;79.35
64876;BME280;51369;49.862;9.908;2023-04-02T08:38:16;98153.22;;;8.87;79.31
64876;BME280;51369;49.862;9.908;2023-04-02T08:40:44;98164.00;;;8.87;78.84
64876;BME280;51369;49.862;9.908;2023-04-02T08:43:19;98170.13;;;8.91;78.87
64876;BME280;51369;49.862;9.908;2023-04-02T08:48:30;98172.66;;;8.95;78.62
64876;BME280;51369;49.862;9.908;2023-04-02T08:50:58;98180.47;;;9.01;79.27
64876;BME280;51369;49.862;9.908;2023-04-02T08:53:28;98185.69;;;9.06;79.07
64876;BME280;51369;49.862;9.908;2023-04-02T08:56:13;98193.53;;;9.12;79.45
64876;BME280;51369;49.862;9.908;2023-04-02T08:58:48;98195.09;;;9.18;79.08
64876;BME280;51369;49.862;9.908;2023-04-02T09:01:22;98205.00;;;9.17;79.06
64876;BME280;51369;49.862;9.908;2023-04-02T09:03:49;98213.00;;;9.19;78.13
64876;BME280;51369;49.862;9.908;2023-04-02T09:06:18;98218.41;;;9.19;78.54
64876;BME280;51369;49.862;9.908;2023-04-02T09:08:46;98224.72;;;9.18;78.35
64876;BME280;51369;49.862;9.908;2023-04-02T09:13:49;98236.56;;;9.13;77.31
64876;BME280;51369;49.862;9.908;2023-04-02T09:16:18;98233.97;;;9.10;77.54
64876;BME280;51369;49.862;9.908;2023-04-02T09:18:49;98231.34;;;9.09;77.12
64876;BME280;51369;49.862;9.908;2023-04-02T09:23:54;98247.31;;;9.13;77.73
64876;BME280;51369;49.862;9.908;2023-04-02T09:26:26;98249.91;;;9.17;76.37
64876;BME280;51369;49.862;9.908;2023-04-02T09:31:45;98256.94;;;9.21;76.85
64876;BME280;51369;49.862;9.908;2023-04-02T09:34:34;98263.94;;;9.25;75.75
64876;BME280;51369;49.862;9.908;2023-04-02T09:37:20;98273.56;;;9.32;76.05
64876;BME280;51369;49.862;9.908;2023-04-02T09:39:49;98267.84;;;9.39;75.24
64876;BME280;51369;49.862;9.908;2023-04-02T09:42:32;98279.63;;;9.37;73.96
64876;BME280;51369;49.862;9.908;2023-04-02T09:47:38;98288.28;;;9.45;74.31
64876;BME280;51369;49.862;9.908;2023-04-02T09:50:33;98293.44;;;9.51;73.92
64876;BME280;51369;49.862;9.908;2023-04-02T09:53:23;98296.66;;;9.61;74.91
64876;BME280;51369;49.862;9.908;2023-04-02T09:58:37;98309.69;;;9.71;74.09
64876;BME280;51369;49.862;9.908;2023-04-02T10:01:04;98315.22;;;9.68;74.13
64876;BME280;51369;49.862;9.908;2023-04-02T10:03:32;98315.28;;;9.67;73.68
64876;BME280;51369;49.862;9.908;2023-04-02T10:06:09;98320.97;;;9.59;73.45
64876;BME280;51369;49.862;9.908;2023-04-02T10:08:37;98317.63;;;9.53;72.67
64876;BME280;51369;49.862;9.908;2023-04-02T10:11:07;98333.16;;;9.46;72.51
64876;BME280;51369;49.862;9.908;2023-04-02T10:13:51;98341.56;;;9.38;73.43
64876;BME280;51369;49.862;9.908;2023-04-02T10:16:22;98338.75;;;9.41;73.18
64876;BME280;51369;49.862;9.908;2023-04-02T10:21:21;98345.31;;;9.34;73.15
64876;BME280;51369;49.862;9.908;2023-04-02T10:23:47;98344.41;;;9.34;72.94
64876;BME280;51369;49.862;9.908;2023-04-02T10:36:50;98361.34;;;9.37;73.63
64876;BME280;51369;49.862;9.908;2023-04-02T10:39:39;98370.72;;;9.27;73.46
64876;BME280;51369;49.862;9.908;2023-04-02T10:45:27;98379.84;;;9.23;73.65
64876;BME280;51369;49.862;9.908;2023-04-02T10:48:07;98386.22;;;9.21;73.67
64876;BME280;51369;49.862;9.908;2023-04-02T10:50:51;98395.31;;;9.18;73.97
64876;BME280;51369;49.862;9.908;2023-04-02T10:53:46;98394.47;;;9.16;74.40
64876;BME280;51369;49.862;9.908;2023-04-02T10:56:10;98400.69;;;9.18;74.90
64876;BME280;51369;49.862;9.908;2023-04-02T10:58:43;98403.28;;;9.21;74.02
64876;BME280;51369;49.862;9.908;2023-04-02T11:01:14;98398.75;;;9.22;74.10
64876;BME280;51369;49.862;9.908;2023-04-02T11:03:45;98416.84;;;9.18;73.48
64876;BME280;51369;49.862;9.908;2023-04-02T11:06:24;98424.16;;;9.14;73.85
64876;BME280;51369;49.862;9.908;2023-04-02T11:09:00;98424.09;;;9.16;74.08
64876;BME280;51369;49.862;9.908;2023-04-02T11:11:37;98422.56;;;9.09;73.93
64876;BME280;51369;49.862;9.908;2023-04-02T11:14:19;98438.22;;;8.98;73.47
64876;BME280;51369;49.862;9.908;2023-04-02T11:16:48;98430.47;;;8.89;73.64
64876;BME280;51369;49.862;9.908;2023-04-02T11:21:45;98435.41;;;8.76;74.48
64876;BME280;51369;49.862;9.908;2023-04-02T11:29:49;98457.03;;;8.73;75.97
64876;BME280;51369;49.862;9.908;2023-04-02T11:39:57;98457.03;;;8.73;76.72
64876;BME280;51369;49.862;9.908;2023-04-02T11:42:33;98464.19;;;8.74;76.51
64876;BME280;51369;49.862;9.908;2023-04-02T11:50:36;98470.97;;;8.86;78.27
64876;BME280;51369;49.862;9.908;2023-04-02T11:55:43;98470.44;;;9.01;77.37
64876;BME280;51369;49.862;9.908;2023-04-02T11:58:31;98480.00;;;9.09;78.04
64876;BME280;51369;49.862;9.908;2023-04-02T12:10:01;98494.22;;;9.39;77.59
64876;BME280;51369;49.862;9.908;2023-04-02T12:12:32;98495.03;;;9.41;76.72
64876;BME280;51369;49.862;9.908;2023-04-02T12:14:59;98500.25;;;9.46;77.22
64876;BME280;51369;49.862;9.908;2023-04-02T12:17:37;98498.59;;;9.42;75.30
64876;BME280;51369;49.862;9.908;2023-04-02T12:22:37;98508.84;;;9.32;75.79
64876;BME280;51369;49.862;9.908;2023-04-02T12:25:17;98513.56;;;9.26;75.09
64876;BME280;51369;49.862;9.908;2023-04-02T12:28:06;98521.19;;;9.13;74.70
64876;BME280;51369;49.862;9.908;2023-04-02T12:30:39;98526.69;;;9.10;74.77
64876;BME280;51369;49.862;9.908;2023-04-02T12:33:15;98523.16;;;9.08;75.85
64876;BME280;51369;49.862;9.908;2023-04-02T12:35:42;98515.03;;;9.09;75.11
64876;BME280;51369;49.862;9.908;2023-04-02T12:38:19;98529.44;;;9.08;75.33
64876;BME280;51369;49.862;9.908;2023-04-02T12:40:59;98530.16;;;9.13;75.70
64876;BME280;51369;49.862;9.908;2023-04-02T12:43:31;98538.06;;;9.18;75.70
64876;BME280;51369;49.862;9.908;2023-04-02T12:45:59;98541.47;;;9.23;75.65
64876;BME280;51369;49.862;9.908;2023-04-02T12:48:26;98541.28;;;9.29;75.35
64876;BME280;51369;49.862;9.908;2023-04-02T12:50:54;98543.69;;;9.37;75.40
64876;BME280;51369;49.862;9.908;2023-04-02T12:53:40;98552.63;;;9.39;75.97
64876;BME280;51369;49.862;9.908;2023-04-02T12:56:07;98544.38;;;9.43;74.67
64876;BME280;51369;49.862;9.908;2023-04-02T12:58:42;98559.66;;;9.43;73.90
64876;BME280;51369;49.862;9.908;2023-04-02T13:01:19;98563.38;;;9.39;74.43
64876;BME280;51369;49.862;9.908;2023-04-02T13:03:58;98571.53;;;9.37;74.53
64876;BME280;51369;49.862;9.908;2023-04-02T13:06:24;98570.75;;;9.34;73.53
64876;BME280;51369;49.862;9.908;2023-04-02T13:08:52;98578.16;;;9.27;73.36
64876;BME280;51369;49.862;9.908;2023-04-02T13:11:18;98569.41;;;9.21;73.28
64876;BME280;51369;49.862;9.908;2023-04-02T13:13:45;98575.88;;;9.15;72.99
64876;BME280;51369;49.862;9.908;2023-04-02T13:18:43;98582.56;;;9.03;72.69
64876;BME280;51369;49.862;9.908;2023-04-02T13:23:42;98595.44;;;8.94;72.68
64876;BME280;51369;49.862;9.908;2023-04-02T13:26:18;98602.00;;;8.85;72.25
64876;BME280;51369;49.862;9.908;2023-04-02T13:29:22;98598.75;;;8.75;72.30
64876;BME280;51369;49.862;9.908;2023-04-02T13:31:48;98602.44;;;8.71;72.65
64876;BME280;51369;49.862;9.908;2023-04-02T13:34:13;98603.56;;;8.66;72.24
64876;BME280;51369;49.862;9.908;2023-04-02T13:36:39;98607.28;;;8.62;72.40
64876;BME280;51369;49.862;9.908;2023-04-02T13:39:05;98609.13;;;8.60;72.11
64876;BME280;51369;49.862;9.908;2023-04-02T13:41:34;98611.00;;;8.58;72.64
64876;BME280;51369;49.862;9.908;2023-04-02T13:44:01;98612.81;;;8.57;72.55
64876;BME280;51369;49.862;9.908;2023-04-02T13:46:33;98624.50;;;8.56;72.46
64876;BME280;51369;49.862;9.908;2023-04-02T13:48:59;98625.47;;;8.54;72.68
64876;BME280;51369;49.862;9.908;2023-04-02T13:51:36;98637.34;;;8.46;72.21
64876;BME280;51369;49.862;9.908;2023-04-02T13:54:07;98634.75;;;8.43;72.56
64876;BME280;51369;49.862;9.908;2023-04-02T13:56:35;98636.69;;;8.38;71.87
64876;BME280;51369;49.862;9.908;2023-04-02T13:59:01;98642.22;;;8.34;71.79
64876;BME280;51369;49.862;9.908;2023-04-02T14:01:26;98650.38;;;8.29;72.42
64876;BME280;51369;49.862;9.908;2023-04-02T14:03:53;98649.53;;;8.27;72.13
64876;BME280;51369;49.862;9.908;2023-04-02T14:12:00;98656.13;;;8.17;71.93
64876;BME280;51369;49.862;9.908;2023-04-02T14:14:40;98657.91;;;8.16;72.25
64876;BME280;51369;49.862;9.908;2023-04-02T14:17:34;98662.41;;;8.16;72.19
64876;BME280;51369;49.862;9.908;2023-04-02T14:23:09;98670.56;;;8.13;71.18
64876;BME280;51369;49.862;9.908;2023-04-02T14:28:17;98676.03;;;8.10;70.83
64876;BME280;51369;49.862;9.908;2023-04-02T14:31:05;98680.56;;;8.08;70.77
64876;BME280;51369;49.862;9.908;2023-04-02T14:34:01;98690.50;;;8.06;70.54
64876;BME280;51369;49.862;9.908;2023-04-02T14:42:18;98698.56;;;8.06;70.33
64876;BME280;51369;49.862;9.908;2023-04-02T14:48:08;98715.72;;;8.02;69.76
64876;BME280;51369;49.862;9.908;2023-04-02T14:50:39;98713.84;;;8.04;69.87
64876;BME280;51369;49.862;9.908;2023-04-02T14:53:16;98719.22;;;8.04;68.89
64876;BME280;51369;49.862;9.908;2023-04-02T14:55:46;98723.72;;;8.03;68.71
64876;BME280;51369;49.862;9.908;2023-04-02T14:58:19;98724.69;;;8.01;68.82
64876;BME280;51369;49.862;9.908;2023-04-02T15:03:36;98732.97;;;7.93;68.16
64876;BME280;51369;49.862;9.908;2023-04-02T15:06:14;98730.19;;;7.96;68.22
64876;BME280;51369;49.862;9.908;2023-04-02T15:08:49;98731.00;;;8.00;68.52
64876;BME280;51369;49.862;9.908;2023-04-02T15:11:20;98735.31;;;8.05;68.17
64876;BME280;51369;49.862;9.908;2023-04-02T15:14:16;98742.22;;;8.15;68.78
64876;BME280;51369;49.862;9.908;2023-04-02T15:16:43;98747.31;;;8.26;68.41
64876;BME280;51369;49.862;9.908;2023-04-02T15:19:14;98741.75;;;8.32;67.99
64876;BME280;51369;49.862;9.908;2023-04-02T15:22:00;98748.81;;;8.38;66.96
64876;BME280;51369;49.862;9.908;2023-04-02T15:30:05;98762.31;;;8.36;66.14
64876;BME280;51369;49.862;9.908;2023-04-02T15:37:49;98776.97;;;8.23;65.75
64876;BME280;51369;49.862;9.908;2023-04-02T15:40:27;98767.31;;;8.16;65.19
64876;BME280;51369;49.862;9.908;2023-04-02T15:42:57;98782.81;;;8.06;65.02
64876;BME280;51369;49.862;9.908;2023-04-02T15:45:38;98788.34;;;8.00;64.93
64876;BME280;51369;49.862;9.908;2023-04-02T15:54:08;98787.53;;;7.97;64.52
64876;BME280;51369;49.862;9.908;2023-04-02T15:56:50;98788.47;;;7.96;65.43
64876;BME280;51369;49.862;9.908;2023-04-02T15:59:33;98791.38;;;7.87;64.91
64876;BME280;51369;49.862;9.908;2023-04-02T16:05:17;98810.63;;;7.70;65.26
64876;BME280;51369;49.862;9.908;2023-04-02T16:08:02;98821.44;;;7.67;65.96
64876;BME280;51369;49.862;9.908;2023-04-02T16:10:36;98824.13;;;7.67;64.57
64876;BME280;51369;49.862;9.908;2023-04-02T16:13:12;98837.59;;;7.65;64.25
64876;BME280;51369;49.862;9.908;2023-04-02T16:15:50;98832.31;;;7.62;64.89
64876;BME280;51369;49.862;9.908;2023-04-02T16:18:32;98836.06;;;7.55;64.86
64876;BME280;51369;49.862;9.908;2023-04-02T16:21:02;98837.97;;;7.50;64.53
64876;BME280;51369;49.862;9.908;2023-04-02T16:23:34;98843.47;;;7.44;65.04
64876;BME280;51369;49.862;9.908;2023-04-02T16:26:22;98842.75;;;7.36;65.21
64876;BME280;51369;49.862;9.908;2023-04-02T16:31:49;98850.09;;;7.28;65.10
64876;BME280;51369;49.862;9.908;2023-04-02T16:37:11;98861.09;;;7.15;65.23
64876;BME280;51369;49.862;9.908;2023-04-02T16:39:48;98870.16;;;7.11;65.25
64876;BME280;51369;49.862;9.908;2023-04-02T16:47:59;98880.34;;;6.94;65.87
64876;BME280;51369;49.862;9.908;2023-04-02T16:56:21;98888.72;;;6.79;65.47